sensor_id;sensor_type;location;lat;lon;timestamp;temperature;humidity
15483;DHT22;7843;50.330;7.312;2023-03-23T00:02:15;11.70;94.40
15483;DHT22;7843;50.330;7.312;2023-03-23T00:04:41;11.70;93.60
15483;DHT22;7843;50.330;7.312;2023-03-23T00:07:08;11.70;93.90
15483;DHT22;7843;50.330;7.312;2023-03-23T00:09:37;11.70;94.00
15483;DHT22;7843;50.330;7.312;2023-03-23T00:12:07;11.70;94.20
15483;DHT22;7843;50.330;7.312;2023-03-23T00:14:35;11.60;94.20
15483;DHT22;7843;50.330;7.312;2023-03-23T00:17:10;11.60;94.40
15483;DHT22;7843;50.330;7.312;2023-03-23T00:19:39;11.60;94.70
15483;DHT22;7843;50.330;7.312;2023-03-23T00:22:15;11.60;94.50
15483;DHT22;7843;50.330;7.312;2023-03-23T00:24:42;11.50;94.80
15483;DHT22;7843;50.330;7.312;2023-03-23T00:27:08;11.50;94.60
15483;DHT22;7843;50.330;7.312;2023-03-23T00:29:34;11.50;94.90
15483;DHT22;7843;50.330;7.312;2023-03-23T00:32:00;11.50;95.30
15483;DHT22;7843;50.330;7.312;2023-03-23T00:34:27;11.40;95.60
15483;DHT22;7843;50.330;7.312;2023-03-23T00:36:57;11.30;95.70
15483;DHT22;7843;50.330;7.312;2023-03-23T00:39:27;11.30;95.80
15483;DHT22;7843;50.330;7.312;2023-03-23T00:41:53;11.20;96.40
15483;DHT22;7843;50.330;7.312;2023-03-23T00:44:29;11.20;96.10
15483;DHT22;7843;50.330;7.312;2023-03-23T00:46:56;11.20;96.10
15483;DHT22;7843;50.330;7.312;2023-03-23T00:49:23;11.40;95.50
15483;DHT22;7843;50.330;7.312;2023-03-23T00:51:53;11.40;95.40
15483;DHT22;7843;50.330;7.312;2023-03-23T00:54:19;11.30;96.10
15483;DHT22;7843;50.330;7.312;2023-03-23T00:56:46;11.30;95.80
15483;DHT22;7843;50.330;7.312;2023-03-23T00:59:12;11.40;96.00
15483;DHT22;7843;50.330;7.312;2023-03-23T01:01:38;11.30;95.70
15483;DHT22;7843;50.330;7.312;2023-03-23T01:04:05;11.40;95.70
15483;DHT22;7843;50.330;7.312;2023-03-23T01:06:33;11.40;95.70
15483;DHT22;7843;50.330;7.312;2023-03-23T01:09:01;11.40;95.60
15483;DHT22;7843;50.330;7.312;2023-03-23T01:11:28;11.30;95.90
15483;DHT22;7843;50.330;7.312;2023-03-23T01:13:54;11.40;95.70
15483;DHT22;7843;50.330;7.312;2023-03-23T01:16:20;11.40;95.50
15483;DHT22;7843;50.330;7.312;2023-03-23T01:18:46;11.40;95.60
15483;DHT22;7843;50.330;7.312;2023-03-23T01:21:17;11.30;95.90
15483;DHT22;7843;50.330;7.312;2023-03-23T01:23:43;11.30;95.70
15483;DHT22;7843;50.330;7.312;2023-03-23T01:26:11;11.30;95.40
15483;DHT22;7843;50.330;7.312;2023-03-23T01:28:38;11.30;95.40
15483;DHT22;7843;50.330;7.312;2023-03-23T01:31:07;11.30;95.40
15483;DHT22;7843;50.330;7.312;2023-03-23T01:33:33;11.30;95.80
15483;DHT22;7843;50.330;7.312;2023-03-23T01:36:04;11.30;95.50
15483;DHT22;7843;50.330;7.312;2023-03-23T01:38:31;11.20;95.50
15483;DHT22;7843;50.330;7.312;2023-03-23T01:40:57;11.30;95.30
15483;DHT22;7843;50.330;7.312;2023-03-23T01:43:22;11.30;95.10
15483;DHT22;7843;50.330;7.312;2023-03-23T01:45:48;11.40;94.80
15483;DHT22;7843;50.330;7.312;2023-03-23T01:48:23;11.40;94.50
15483;DHT22;7843;50.330;7.312;2023-03-23T01:50:55;11.30;94.90
15483;DHT22;7843;50.330;7.312;2023-03-23T01:53:26;11.30;94.40
15483;DHT22;7843;50.330;7.312;2023-03-23T01:55:54;11.30;95.00
15483;DHT22;7843;50.330;7.312;2023-03-23T01:58:25;11.30;95.70
15483;DHT22;7843;50.330;7.312;2023-03-23T02:00:54;11.20;95.90
15483;DHT22;7843;50.330;7.312;2023-03-23T02:03:21;11.10;96.60
15483;DHT22;7843;50.330;7.312;2023-03-23T02:05:49;11.10;97.20
15483;DHT22;7843;50.330;7.312;2023-03-23T02:08:15;11.10;97.30
15483;DHT22;7843;50.330;7.312;2023-03-23T02:10:41;11.00;97.80
15483;DHT22;7843;50.330;7.312;2023-03-23T02:13:08;10.90;99.00
15483;DHT22;7843;50.330;7.312;2023-03-23T02:18:31;10.70;99.80
15483;DHT22;7843;50.330;7.312;2023-03-23T02:24:08;10.60;99.60
15483;DHT22;7843;50.330;7.312;2023-03-23T02:32:16;10.60;99.60
15483;DHT22;7843;50.330;7.312;2023-03-23T02:34:56;10.70;99.50
15483;DHT22;7843;50.330;7.312;2023-03-23T02:37:36;10.60;99.60
15483;DHT22;7843;50.330;7.312;2023-03-23T02:40:07;10.70;98.80
15483;DHT22;7843;50.330;7.312;2023-03-23T02:42:37;10.60;99.40
15483;DHT22;7843;50.330;7.312;2023-03-23T02:45:07;10.70;98.80
15483;DHT22;7843;50.330;7.312;2023-03-23T02:47:36;10.70;99.20
15483;DHT22;7843;50.330;7.312;2023-03-23T02:50:03;10.60;99.80
15483;DHT22;7843;50.330;7.312;2023-03-23T02:52:31;10.70;99.40
15483;DHT22;7843;50.330;7.312;2023-03-23T02:54:59;10.70;99.40
15483;DHT22;7843;50.330;7.312;2023-03-23T02:57:26;10.70;99.10
15483;DHT22;7843;50.330;7.312;2023-03-23T02:59:52;10.70;99.20
15483;DHT22;7843;50.330;7.312;2023-03-23T03:02:22;10.70;99.50
15483;DHT22;7843;50.330;7.312;2023-03-23T03:11:08;10.70;99.60
15483;DHT22;7843;50.330;7.312;2023-03-23T03:13:53;10.60;99.90
15483;DHT22;7843;50.330;7.312;2023-03-23T03:19:40;10.70;99.80
15483;DHT22;7843;50.330;7.312;2023-03-23T03:22:08;10.60;99.90
15483;DHT22;7843;50.330;7.312;2023-03-23T03:24:34;10.60;99.90
15483;DHT22;7843;50.330;7.312;2023-03-23T03:27:04;10.70;99.90
15483;DHT22;7843;50.330;7.312;2023-03-23T03:29:36;10.70;99.90
15483;DHT22;7843;50.330;7.312;2023-03-23T03:32:06;10.60;99.90
15483;DHT22;7843;50.330;7.312;2023-03-23T03:34:34;10.60;99.90
15483;DHT22;7843;50.330;7.312;2023-03-23T03:37:00;10.70;99.90
15483;DHT22;7843;50.330;7.312;2023-03-23T03:39:27;10.70;99.90
15483;DHT22;7843;50.330;7.312;2023-03-23T03:41:53;10.70;99.90
15483;DHT22;7843;50.330;7.312;2023-03-23T03:44:20;10.70;99.90
15483;DHT22;7843;50.330;7.312;2023-03-23T03:46:45;10.60;99.90
15483;DHT22;7843;50.330;7.312;2023-03-23T03:49:11;10.60;99.90
15483;DHT22;7843;50.330;7.312;2023-03-23T03:51:38;10.60;99.90
15483;DHT22;7843;50.330;7.312;2023-03-23T03:54:04;10.60;99.90
15483;DHT22;7843;50.330;7.312;2023-03-23T03:56:30;10.60;99.90
15483;DHT22;7843;50.330;7.312;2023-03-23T03:58:57;10.60;99.90
15483;DHT22;7843;50.330;7.312;2023-03-23T04:01:22;10.60;99.90
15483;DHT22;7843;50.330;7.312;2023-03-23T04:03:50;10.60;99.90
15483;DHT22;7843;50.330;7.312;2023-03-23T04:06:16;10.60;99.90
15483;DHT22;7843;50.330;7.312;2023-03-23T04:08:42;10.60;99.90
15483;DHT22;7843;50.330;7.312;2023-03-23T04:11:09;10.60;99.90
15483;DHT22;7843;50.330;7.312;2023-03-23T04:13:36;10.50;99.90
15483;DHT22;7843;50.330;7.312;2023-03-23T04:16:02;10.60;99.90
15483;DHT22;7843;50.330;7.312;2023-03-23T04:18:28;10.60;99.90
15483;DHT22;7843;50.330;7.312;2023-03-23T04:20:54;10.60;99.90
15483;DHT22;7843;50.330;7.312;2023-03-23T04:23:25;10.60;99.90
15483;DHT22;7843;50.330;7.312;2023-03-23T04:25:51;10.60;99.90
15483;DHT22;7843;50.330;7.312;2023-03-23T04:28:19;10.70;99.90
15483;DHT22;7843;50.330;7.312;2023-03-23T04:30:49;10.60;99.90
15483;DHT22;7843;50.330;7.312;2023-03-23T04:33:18;10.60;99.90
15483;DHT22;7843;50.330;7.312;2023-03-23T04:35:45;10.60;99.90
15483;DHT22;7843;50.330;7.312;2023-03-23T04:38:12;10.70;99.90
15483;DHT22;7843;50.330;7.312;2023-03-23T04:40:43;10.70;99.90
15483;DHT22;7843;50.330;7.312;2023-03-23T04:43:09;10.70;99.90
15483;DHT22;7843;50.330;7.312;2023-03-23T04:45:38;10.70;99.90
15483;DHT22;7843;50.330;7.312;2023-03-23T04:48:07;10.70;99.90
15483;DHT22;7843;50.330;7.312;2023-03-23T04:50:33;10.80;99.90
15483;DHT22;7843;50.330;7.312;2023-03-23T04:53:01;10.80;99.90
15483;DHT22;7843;50.330;7.312;2023-03-23T04:55:34;10.80;99.90
15483;DHT22;7843;50.330;7.312;2023-03-23T04:58:04;10.90;99.90
15483;DHT22;7843;50.330;7.312;2023-03-23T05:00:32;10.80;99.90
15483;DHT22;7843;50.330;7.312;2023-03-23T05:02:58;10.90;99.90
15483;DHT22;7843;50.330;7.312;2023-03-23T05:05:24;10.90;99.90
15483;DHT22;7843;50.330;7.312;2023-03-23T05:07:51;10.90;99.90
15483;DHT22;7843;50.330;7.312;2023-03-23T05:10:17;10.80;99.90
15483;DHT22;7843;50.330;7.312;2023-03-23T05:12:43;10.80;99.90
15483;DHT22;7843;50.330;7.312;2023-03-23T05:15:11;10.80;99.90
15483;DHT22;7843;50.330;7.312;2023-03-23T05:17:37;10.80;99.90
15483;DHT22;7843;50.330;7.312;2023-03-23T05:20:04;10.80;99.90
15483;DHT22;7843;50.330;7.312;2023-03-23T05:22:33;10.80;99.90
15483;DHT22;7843;50.330;7.312;2023-03-23T05:25:00;10.70;99.90
15483;DHT22;7843;50.330;7.312;2023-03-23T05:27:28;10.70;99.90
15483;DHT22;7843;50.330;7.312;2023-03-23T05:29:56;10.60;99.90
15483;DHT22;7843;50.330;7.312;2023-03-23T05:32:24;10.60;99.90
15483;DHT22;7843;50.330;7.312;2023-03-23T05:34:55;10.70;99.90
15483;DHT22;7843;50.330;7.312;2023-03-23T05:37:22;10.70;99.90
15483;DHT22;7843;50.330;7.312;2023-03-23T05:39:47;10.70;99.90
15483;DHT22;7843;50.330;7.312;2023-03-23T05:42:13;10.80;99.90
15483;DHT22;7843;50.330;7.312;2023-03-23T05:44:38;10.80;99.90
15483;DHT22;7843;50.330;7.312;2023-03-23T05:47:04;10.80;99.90
15483;DHT22;7843;50.330;7.312;2023-03-23T05:49:30;10.80;99.90
15483;DHT22;7843;50.330;7.312;2023-03-23T05:51:56;10.80;99.90
15483;DHT22;7843;50.330;7.312;2023-03-23T05:54:21;10.80;99.90
15483;DHT22;7843;50.330;7.312;2023-03-23T05:56:47;10.80;99.90
15483;DHT22;7843;50.330;7.312;2023-03-23T05:59:14;10.90;99.90
15483;DHT22;7843;50.330;7.312;2023-03-23T06:01:40;10.90;99.90
15483;DHT22;7843;50.330;7.312;2023-03-23T06:04:06;10.90;99.90
15483;DHT22;7843;50.330;7.312;2023-03-23T06:06:31;10.90;99.90
15483;DHT22;7843;50.330;7.312;2023-03-23T06:08:58;10.90;99.90
15483;DHT22;7843;50.330;7.312;2023-03-23T06:11:24;10.90;99.90
15483;DHT22;7843;50.330;7.312;2023-03-23T06:13:51;11.00;99.90
15483;DHT22;7843;50.330;7.312;2023-03-23T06:16:18;11.00;99.90
15483;DHT22;7843;50.330;7.312;2023-03-23T06:18:44;11.00;99.90
15483;DHT22;7843;50.330;7.312;2023-03-23T06:21:11;11.00;99.90
15483;DHT22;7843;50.330;7.312;2023-03-23T06:23:38;11.00;99.90
15483;DHT22;7843;50.330;7.312;2023-03-23T06:26:07;11.10;99.90
15483;DHT22;7843;50.330;7.312;2023-03-23T06:28:33;11.10;99.90
15483;DHT22;7843;50.330;7.312;2023-03-23T06:31:00;11.00;99.90
15483;DHT22;7843;50.330;7.312;2023-03-23T06:33:27;11.00;99.90
15483;DHT22;7843;50.330;7.312;2023-03-23T06:35:52;11.00;99.90
15483;DHT22;7843;50.330;7.312;2023-03-23T06:38:18;11.00;99.90
15483;DHT22;7843;50.330;7.312;2023-03-23T06:40:43;11.00;99.90
15483;DHT22;7843;50.330;7.312;2023-03-23T06:43:12;11.00;99.90
15483;DHT22;7843;50.330;7.312;2023-03-23T06:45:38;11.10;99.90
15483;DHT22;7843;50.330;7.312;2023-03-23T06:48:04;11.10;99.90
15483;DHT22;7843;50.330;7.312;2023-03-23T06:50:29;11.20;99.90
15483;DHT22;7843;50.330;7.312;2023-03-23T06:52:56;11.20;99.90
15483;DHT22;7843;50.330;7.312;2023-03-23T06:55:21;11.20;99.90
15483;DHT22;7843;50.330;7.312;2023-03-23T06:57:47;11.20;99.90
15483;DHT22;7843;50.330;7.312;2023-03-23T07:00:13;11.30;99.90
15483;DHT22;7843;50.330;7.312;2023-03-23T07:02:40;11.30;99.90
15483;DHT22;7843;50.330;7.312;2023-03-23T07:05:07;11.30;99.90
15483;DHT22;7843;50.330;7.312;2023-03-23T07:07:38;11.30;99.90
15483;DHT22;7843;50.330;7.312;2023-03-23T07:10:05;11.30;99.90
15483;DHT22;7843;50.330;7.312;2023-03-23T07:12:31;11.40;99.90
15483;DHT22;7843;50.330;7.312;2023-03-23T07:14:58;11.50;99.90
15483;DHT22;7843;50.330;7.312;2023-03-23T07:17:24;11.50;99.90
15483;DHT22;7843;50.330;7.312;2023-03-23T07:19:50;11.60;99.40
15483;DHT22;7843;50.330;7.312;2023-03-23T07:22:16;11.60;99.30
15483;DHT22;7843;50.330;7.312;2023-03-23T07:24:41;11.60;99.40
15483;DHT22;7843;50.330;7.312;2023-03-23T07:27:08;11.70;99.60
15483;DHT22;7843;50.330;7.312;2023-03-23T07:29:33;11.70;99.10
15483;DHT22;7843;50.330;7.312;2023-03-23T07:32:01;11.80;99.30
15483;DHT22;7843;50.330;7.312;2023-03-23T07:34:27;11.80;99.30
15483;DHT22;7843;50.330;7.312;2023-03-23T07:36:53;11.90;99.00
15483;DHT22;7843;50.330;7.312;2023-03-23T07:39:19;12.00;98.30
15483;DHT22;7843;50.330;7.312;2023-03-23T07:41:45;12.10;97.40
15483;DHT22;7843;50.330;7.312;2023-03-23T07:44:10;12.10;97.50
15483;DHT22;7843;50.330;7.312;2023-03-23T07:46:36;12.10;98.20
15483;DHT22;7843;50.330;7.312;2023-03-23T07:49:02;12.10;97.80
15483;DHT22;7843;50.330;7.312;2023-03-23T07:51:31;12.10;97.20
15483;DHT22;7843;50.330;7.312;2023-03-23T07:53:57;12.10;97.50
15483;DHT22;7843;50.330;7.312;2023-03-23T07:56:23;12.20;97.30
15483;DHT22;7843;50.330;7.312;2023-03-23T07:58:49;12.30;97.00
15483;DHT22;7843;50.330;7.312;2023-03-23T08:01:15;12.40;97.50
15483;DHT22;7843;50.330;7.312;2023-03-23T08:03:41;12.50;97.20
15483;DHT22;7843;50.330;7.312;2023-03-23T08:06:08;12.60;96.60
15483;DHT22;7843;50.330;7.312;2023-03-23T08:08:34;12.70;96.20
15483;DHT22;7843;50.330;7.312;2023-03-23T08:10:59;12.80;96.30
15483;DHT22;7843;50.330;7.312;2023-03-23T08:13:25;12.80;96.10
15483;DHT22;7843;50.330;7.312;2023-03-23T08:15:51;12.90;95.10
15483;DHT22;7843;50.330;7.312;2023-03-23T08:18:17;12.90;95.20
15483;DHT22;7843;50.330;7.312;2023-03-23T08:20:43;13.00;95.80
15483;DHT22;7843;50.330;7.312;2023-03-23T08:23:10;13.00;94.90
15483;DHT22;7843;50.330;7.312;2023-03-23T08:25:36;13.00;94.90
15483;DHT22;7843;50.330;7.312;2023-03-23T08:28:03;13.10;94.70
15483;DHT22;7843;50.330;7.312;2023-03-23T08:30:29;13.20;94.70
15483;DHT22;7843;50.330;7.312;2023-03-23T08:32:57;13.20;93.90
15483;DHT22;7843;50.330;7.312;2023-03-23T08:35:24;13.40;93.60
15483;DHT22;7843;50.330;7.312;2023-03-23T08:37:50;13.40;93.60
15483;DHT22;7843;50.330;7.312;2023-03-23T08:40:21;13.50;93.60
15483;DHT22;7843;50.330;7.312;2023-03-23T08:42:50;13.50;93.40
15483;DHT22;7843;50.330;7.312;2023-03-23T08:45:19;13.60;93.60
15483;DHT22;7843;50.330;7.312;2023-03-23T08:47:45;13.60;93.20
15483;DHT22;7843;50.330;7.312;2023-03-23T08:50:14;13.70;92.20
15483;DHT22;7843;50.330;7.312;2023-03-23T08:52:40;13.60;92.30
15483;DHT22;7843;50.330;7.312;2023-03-23T08:55:06;13.50;92.90
15483;DHT22;7843;50.330;7.312;2023-03-23T08:57:35;13.60;92.80
15483;DHT22;7843;50.330;7.312;2023-03-23T09:00:04;13.60;92.50
15483;DHT22;7843;50.330;7.312;2023-03-23T09:02:42;13.60;91.80
15483;DHT22;7843;50.330;7.312;2023-03-23T09:05:09;13.70;91.60
15483;DHT22;7843;50.330;7.312;2023-03-23T09:07:38;13.70;91.80
15483;DHT22;7843;50.330;7.312;2023-03-23T09:10:04;13.80;91.70
15483;DHT22;7843;50.330;7.312;2023-03-23T09:12:30;13.80;89.40
15483;DHT22;7843;50.330;7.312;2023-03-23T09:14:55;13.80;90.40
15483;DHT22;7843;50.330;7.312;2023-03-23T09:17:21;13.90;90.80
15483;DHT22;7843;50.330;7.312;2023-03-23T09:19:47;13.90;90.70
15483;DHT22;7843;50.330;7.312;2023-03-23T09:22:12;13.80;89.60
15483;DHT22;7843;50.330;7.312;2023-03-23T09:24:39;13.80;89.90
15483;DHT22;7843;50.330;7.312;2023-03-23T09:27:05;13.70;91.00
15483;DHT22;7843;50.330;7.312;2023-03-23T09:29:30;13.60;91.50
15483;DHT22;7843;50.330;7.312;2023-03-23T09:31:56;13.60;92.50
15483;DHT22;7843;50.330;7.312;2023-03-23T09:34:22;13.60;91.90
15483;DHT22;7843;50.330;7.312;2023-03-23T09:36:48;13.50;91.80
15483;DHT22;7843;50.330;7.312;2023-03-23T09:39:15;13.50;92.80
15483;DHT22;7843;50.330;7.312;2023-03-23T09:44:39;13.70;93.80
15483;DHT22;7843;50.330;7.312;2023-03-23T09:47:12;13.90;92.80
15483;DHT22;7843;50.330;7.312;2023-03-23T09:49:44;14.20;91.10
15483;DHT22;7843;50.330;7.312;2023-03-23T09:52:16;14.30;90.80
15483;DHT22;7843;50.330;7.312;2023-03-23T09:54:47;14.50;92.10
15483;DHT22;7843;50.330;7.312;2023-03-23T09:57:23;14.50;90.70
15483;DHT22;7843;50.330;7.312;2023-03-23T10:02:58;14.70;89.40
15483;DHT22;7843;50.330;7.312;2023-03-23T10:05:27;14.70;88.80
15483;DHT22;7843;50.330;7.312;2023-03-23T10:07:54;14.80;89.50
15483;DHT22;7843;50.330;7.312;2023-03-23T10:10:22;14.90;88.80
15483;DHT22;7843;50.330;7.312;2023-03-23T10:13:01;14.90;88.10
15483;DHT22;7843;50.330;7.312;2023-03-23T10:15:33;14.80;87.60
15483;DHT22;7843;50.330;7.312;2023-03-23T10:18:15;14.90;89.10
15483;DHT22;7843;50.330;7.312;2023-03-23T10:20:58;14.70;88.10
15483;DHT22;7843;50.330;7.312;2023-03-23T10:28:48;14.40;89.60
15483;DHT22;7843;50.330;7.312;2023-03-23T10:31:29;14.30;89.90
15483;DHT22;7843;50.330;7.312;2023-03-23T10:34:01;14.20;89.90
15483;DHT22;7843;50.330;7.312;2023-03-23T10:36:33;14.30;91.50
15483;DHT22;7843;50.330;7.312;2023-03-23T10:39:06;14.40;91.20
15483;DHT22;7843;50.330;7.312;2023-03-23T10:41:35;14.50;90.70
15483;DHT22;7843;50.330;7.312;2023-03-23T10:44:10;14.60;89.60
15483;DHT22;7843;50.330;7.312;2023-03-23T10:57:31;15.50;88.10
15483;DHT22;7843;50.330;7.312;2023-03-23T11:00:23;15.60;87.60
15483;DHT22;7843;50.330;7.312;2023-03-23T11:03:46;15.70;86.80
15483;DHT22;7843;50.330;7.312;2023-03-23T11:06:00;15.60;86.20
15483;DHT22;7843;50.330;7.312;2023-03-23T11:08:38;15.90;86.60
15483;DHT22;7843;50.330;7.312;2023-03-23T11:11:19;16.10;84.80
15483;DHT22;7843;50.330;7.312;2023-03-23T11:13:49;15.90;85.20
15483;DHT22;7843;50.330;7.312;2023-03-23T11:16:28;15.70;86.20
15483;DHT22;7843;50.330;7.312;2023-03-23T11:18:54;15.60;86.60
15483;DHT22;7843;50.330;7.312;2023-03-23T11:21:22;15.50;86.40
15483;DHT22;7843;50.330;7.312;2023-03-23T11:23:59;15.50;86.80
15483;DHT22;7843;50.330;7.312;2023-03-23T11:31:37;15.70;85.60
15483;DHT22;7843;50.330;7.312;2023-03-23T11:34:13;15.80;85.20
15483;DHT22;7843;50.330;7.312;2023-03-23T11:36:46;15.80;84.80
15483;DHT22;7843;50.330;7.312;2023-03-23T11:39:26;15.80;86.20
15483;DHT22;7843;50.330;7.312;2023-03-23T11:41:54;16.00;86.40
15483;DHT22;7843;50.330;7.312;2023-03-23T11:44:22;16.10;85.70
15483;DHT22;7843;50.330;7.312;2023-03-23T11:47:05;16.20;85.60
15483;DHT22;7843;50.330;7.312;2023-03-23T11:49:39;16.40;85.20
15483;DHT22;7843;50.330;7.312;2023-03-23T11:52:33;16.40;84.10
15483;DHT22;7843;50.330;7.312;2023-03-23T11:55:17;16.40;84.60
15483;DHT22;7843;50.330;7.312;2023-03-23T11:57:44;16.50;83.10
15483;DHT22;7843;50.330;7.312;2023-03-23T12:00:18;16.50;84.30
15483;DHT22;7843;50.330;7.312;2023-03-23T12:03:07;16.60;85.00
15483;DHT22;7843;50.330;7.312;2023-03-23T12:09:06;16.50;82.70
15483;DHT22;7843;50.330;7.312;2023-03-23T12:11:55;16.40;83.30
15483;DHT22;7843;50.330;7.312;2023-03-23T12:17:00;15.80;85.00
15483;DHT22;7843;50.330;7.312;2023-03-23T12:27:38;15.50;85.90
15483;DHT22;7843;50.330;7.312;2023-03-23T12:30:32;15.60;86.00
15483;DHT22;7843;50.330;7.312;2023-03-23T12:41:12;18.30;82.30
15483;DHT22;7843;50.330;7.312;2023-03-23T12:44:07;19.70;78.10
15483;DHT22;7843;50.330;7.312;2023-03-23T12:49:10;20.00;76.10
15483;DHT22;7843;50.330;7.312;2023-03-23T12:54:19;20.10;74.50
15483;DHT22;7843;50.330;7.312;2023-03-23T12:59:21;18.90;76.50
15483;DHT22;7843;50.330;7.312;2023-03-23T13:01:54;18.40;76.10
15483;DHT22;7843;50.330;7.312;2023-03-23T13:04:25;18.00;78.30
15483;DHT22;7843;50.330;7.312;2023-03-23T13:06:52;17.70;78.30
15483;DHT22;7843;50.330;7.312;2023-03-23T13:12:25;17.30;81.40
15483;DHT22;7843;50.330;7.312;2023-03-23T13:23:33;16.90;81.60
15483;DHT22;7843;50.330;7.312;2023-03-23T13:26:08;16.90;81.70
15483;DHT22;7843;50.330;7.312;2023-03-23T13:31:27;16.90;82.00
15483;DHT22;7843;50.330;7.312;2023-03-23T13:34:04;16.80;80.60
15483;DHT22;7843;50.330;7.312;2023-03-23T13:36:43;16.60;80.90
15483;DHT22;7843;50.330;7.312;2023-03-23T13:39:34;16.30;82.00
15483;DHT22;7843;50.330;7.312;2023-03-23T13:49:57;16.00;83.50
15483;DHT22;7843;50.330;7.312;2023-03-23T14:00:34;17.40;80.80
15483;DHT22;7843;50.330;7.312;2023-03-23T14:06:22;16.50;83.20
15483;DHT22;7843;50.330;7.312;2023-03-23T14:10:57;16.10;84.70
15483;DHT22;7843;50.330;7.312;2023-03-23T14:13:44;17.20;83.60
15483;DHT22;7843;50.330;7.312;2023-03-23T14:16:20;18.10;80.60
15483;DHT22;7843;50.330;7.312;2023-03-23T14:18:53;17.90;80.60
15483;DHT22;7843;50.330;7.312;2023-03-23T14:21:37;17.60;81.30
15483;DHT22;7843;50.330;7.312;2023-03-23T14:24:11;17.20;82.00
15483;DHT22;7843;50.330;7.312;2023-03-23T14:26:38;16.90;82.30
15483;DHT22;7843;50.330;7.312;2023-03-23T14:29:05;16.60;83.70
15483;DHT22;7843;50.330;7.312;2023-03-23T14:31:31;16.30;83.90
15483;DHT22;7843;50.330;7.312;2023-03-23T14:34:18;16.00;84.70
15483;DHT22;7843;50.330;7.312;2023-03-23T14:36:44;16.10;84.50
15483;DHT22;7843;50.330;7.312;2023-03-23T14:41:43;16.60;84.30
15483;DHT22;7843;50.330;7.312;2023-03-23T14:45:00;16.80;83.20
15483;DHT22;7843;50.330;7.312;2023-03-23T14:47:26;17.00;82.50
15483;DHT22;7843;50.330;7.312;2023-03-23T14:49:57;16.90;82.70
15483;DHT22;7843;50.330;7.312;2023-03-23T14:52:27;16.80;83.20
15483;DHT22;7843;50.330;7.312;2023-03-23T14:54:53;16.60;83.70
15483;DHT22;7843;50.330;7.312;2023-03-23T14:59:50;16.30;84.00
15483;DHT22;7843;50.330;7.312;2023-03-23T15:02:36;16.10;84.40
15483;DHT22;7843;50.330;7.312;2023-03-23T15:05:15;16.10;82.90
15483;DHT22;7843;50.330;7.312;2023-03-23T15:07:50;16.20;82.20
15483;DHT22;7843;50.330;7.312;2023-03-23T15:10:22;16.20;82.70
15483;DHT22;7843;50.330;7.312;2023-03-23T15:12:49;16.20;82.80
15483;DHT22;7843;50.330;7.312;2023-03-23T15:15:33;16.10;81.70
15483;DHT22;7843;50.330;7.312;2023-03-23T15:18:01;16.10;83.00
15483;DHT22;7843;50.330;7.312;2023-03-23T15:20:32;16.00;82.80
15483;DHT22;7843;50.330;7.312;2023-03-23T15:23:15;15.90;83.70
15483;DHT22;7843;50.330;7.312;2023-03-23T15:25:47;15.80;84.30
15483;DHT22;7843;50.330;7.312;2023-03-23T15:28:22;15.70;84.20
15483;DHT22;7843;50.330;7.312;2023-03-23T15:31:02;15.70;84.70
15483;DHT22;7843;50.330;7.312;2023-03-23T15:36:06;15.70;83.40
15483;DHT22;7843;50.330;7.312;2023-03-23T15:38:34;15.60;83.90
15483;DHT22;7843;50.330;7.312;2023-03-23T15:41:03;15.70;84.00
15483;DHT22;7843;50.330;7.312;2023-03-23T15:43:35;15.80;83.80
15483;DHT22;7843;50.330;7.312;2023-03-23T15:48:31;15.80;83.50
15483;DHT22;7843;50.330;7.312;2023-03-23T15:50:57;15.80;83.00
15483;DHT22;7843;50.330;7.312;2023-03-23T15:53:35;15.90;83.70
15483;DHT22;7843;50.330;7.312;2023-03-23T15:56:04;16.00;83.30
15483;DHT22;7843;50.330;7.312;2023-03-23T15:58:31;16.00;83.30
15483;DHT22;7843;50.330;7.312;2023-03-23T16:01:00;16.00;83.40
15483;DHT22;7843;50.330;7.312;2023-03-23T16:06:12;16.00;83.50
15483;DHT22;7843;50.330;7.312;2023-03-23T16:08:39;15.80;82.90
15483;DHT22;7843;50.330;7.312;2023-03-23T16:11:09;15.70;83.50
15483;DHT22;7843;50.330;7.312;2023-03-23T16:13:37;15.60;84.60
15483;DHT22;7843;50.330;7.312;2023-03-23T16:16:05;15.50;84.50
15483;DHT22;7843;50.330;7.312;2023-03-23T16:18:33;15.40;83.90
15483;DHT22;7843;50.330;7.312;2023-03-23T16:21:00;15.30;84.30
15483;DHT22;7843;50.330;7.312;2023-03-23T16:23:27;15.30;85.20
15483;DHT22;7843;50.330;7.312;2023-03-23T16:25:54;15.30;84.90
15483;DHT22;7843;50.330;7.312;2023-03-23T16:28:20;15.20;86.20
15483;DHT22;7843;50.330;7.312;2023-03-23T16:30:48;15.20;85.00
15483;DHT22;7843;50.330;7.312;2023-03-23T16:33:14;15.10;85.20
15483;DHT22;7843;50.330;7.312;2023-03-23T16:35:41;15.00;85.30
15483;DHT22;7843;50.330;7.312;2023-03-23T16:38:13;14.90;85.80
15483;DHT22;7843;50.330;7.312;2023-03-23T16:40:43;14.80;86.80
15483;DHT22;7843;50.330;7.312;2023-03-23T16:43:10;14.80;86.30
15483;DHT22;7843;50.330;7.312;2023-03-23T16:45:38;14.80;86.40
15483;DHT22;7843;50.330;7.312;2023-03-23T16:48:07;14.80;86.10
15483;DHT22;7843;50.330;7.312;2023-03-23T16:50:35;14.70;87.10
15483;DHT22;7843;50.330;7.312;2023-03-23T16:53:02;14.70;87.20
15483;DHT22;7843;50.330;7.312;2023-03-23T16:55:30;14.70;87.40
15483;DHT22;7843;50.330;7.312;2023-03-23T16:57:57;14.60;87.80
15483;DHT22;7843;50.330;7.312;2023-03-23T17:00:31;14.50;88.20
15483;DHT22;7843;50.330;7.312;2023-03-23T17:02:58;14.50;88.20
15483;DHT22;7843;50.330;7.312;2023-03-23T17:05:27;14.20;89.30
15483;DHT22;7843;50.330;7.312;2023-03-23T17:07:54;14.20;89.50
15483;DHT22;7843;50.330;7.312;2023-03-23T17:10:23;14.10;89.70
15483;DHT22;7843;50.330;7.312;2023-03-23T17:12:50;14.00;90.10
15483;DHT22;7843;50.330;7.312;2023-03-23T17:15:17;14.00;90.30
15483;DHT22;7843;50.330;7.312;2023-03-23T17:17:44;13.90;90.30
15483;DHT22;7843;50.330;7.312;2023-03-23T17:20:11;13.80;90.60
15483;DHT22;7843;50.330;7.312;2023-03-23T17:22:39;13.70;91.20
15483;DHT22;7843;50.330;7.312;2023-03-23T17:25:07;13.60;91.40
15483;DHT22;7843;50.330;7.312;2023-03-23T17:27:35;13.60;91.40
15483;DHT22;7843;50.330;7.312;2023-03-23T17:30:04;13.50;92.30
15483;DHT22;7843;50.330;7.312;2023-03-23T17:32:31;13.40;92.30
15483;DHT22;7843;50.330;7.312;2023-03-23T17:34:58;13.40;92.60
15483;DHT22;7843;50.330;7.312;2023-03-23T17:37:25;13.40;92.40
15483;DHT22;7843;50.330;7.312;2023-03-23T17:39:52;13.40;92.60
15483;DHT22;7843;50.330;7.312;2023-03-23T17:42:18;13.40;92.20
15483;DHT22;7843;50.330;7.312;2023-03-23T17:44:45;13.40;91.80
15483;DHT22;7843;50.330;7.312;2023-03-23T17:47:11;13.30;92.00
15483;DHT22;7843;50.330;7.312;2023-03-23T17:49:38;13.30;92.10
15483;DHT22;7843;50.330;7.312;2023-03-23T17:52:05;13.30;92.30
15483;DHT22;7843;50.330;7.312;2023-03-23T17:54:32;13.20;92.50
15483;DHT22;7843;50.330;7.312;2023-03-23T17:56:58;13.20;92.20
15483;DHT22;7843;50.330;7.312;2023-03-23T17:59:29;13.10;92.70
15483;DHT22;7843;50.330;7.312;2023-03-23T18:01:56;13.00;92.60
15483;DHT22;7843;50.330;7.312;2023-03-23T18:04:23;13.00;92.80
15483;DHT22;7843;50.330;7.312;2023-03-23T18:06:56;13.00;92.60